Bhaven, Mississippi
Current Conditions -  °F | °C
As of 3:55 PM on Saturday 25 Oct 2014 (Local Time) from K1R7 Reporting Station
Clear Clear  
Wind Chill: 79°   Ceiling: Unl
Heat Index: 80°   Visibility: 9mi
Dew Point: 61°   Wind: 8mph
Humidity: 54%   Direction: 350°N
Pressure: 30.1"   Gusts: NA
Location:  31.5903°N, 90.4722°W
Report Text: K1R7 252055Z AUTO 35007KT 9SM CLR 26/16 A3010 RMK AO2
Loading
Personal Weather Stations






























Interactive Weather Map
Tropical Storm Tracking
New forecast layout! Learn more

10-Day Weather Forecast

Advertisements
Track Severe Weather on mobile